Time;durP1;ratioP1;P1;durP2;ratioP2;P2;SDS_P1;SDS_P2;PMS_P1;PMS_P2;Temp;Humidity;BMP_temperature;BMP_pressure;BME280_temperature;BME280_humidity;BME280_pressure;Samples;Min_cycle;Max_cycle;Signal;HPM_P1;HPM_P2
2022/12/12 00:00:25;;;;;;;20.40;11.53;;;-0.60;99.90;;;;;;5018039;28;20180;-93
2022/12/12 00:02:50;;;;;;;21.17;10.37;;;-0.50;99.90;;;;;;5035716;28;20185;-92
2022/12/12 00:05:17;;;;;;;20.10;10.10;;;-0.50;99.90;;;;;;5038643;28;20185;-95
2022/12/12 00:07:42;;;;;;;20.53;12.13;;;-0.50;99.90;;;;;;5040258;28;20191;-93
2022/12/12 00:10:08;;;;;;;19.67;12.07;;;-0.60;99.90;;;;;;5021570;28;20476;-94
2022/12/12 00:12:34;;;;;;;19.33;11.77;;;-0.60;99.90;;;;;;5042180;28;20182;-94
2022/12/12 00:15:03;;;;;;;21.47;11.40;;;-0.60;99.90;;;;;;5039369;28;20175;-94
2022/12/12 00:17:28;;;;;;;18.97;11.40;;;-0.60;99.90;;;;;;5037055;28;20423;-94
2022/12/12 00:19:54;;;;;;;19.57;11.60;;;-0.50;99.90;;;;;;5037988;28;20425;-93
2022/12/12 00:22:19;;;;;;;19.60;11.80;;;-0.50;99.90;;;;;;5042220;28;20179;-94
2022/12/12 00:24:45;;;;;;;20.20;11.57;;;-0.60;99.90;;;;;;5044268;28;20203;-94
2022/12/12 00:27:10;;;;;;;16.83;10.13;;;-0.60;99.90;;;;;;5025195;28;20164;-94
2022/12/12 00:29:36;;;;;;;16.20;10.27;;;-0.50;99.90;;;;;;5041323;28;20202;-92
2022/12/12 00:32:01;;;;;;;24.40;11.70;;;-0.60;99.90;;;;;;5040915;28;20170;-94
2022/12/12 00:34:33;;;;;;;22.40;10.23;;;-0.50;99.90;;;;;;5041045;28;20632;-94
2022/12/12 00:36:59;;;;;;;20.03;11.10;;;-0.50;99.90;;;;;;5045604;28;20214;-94
2022/12/12 00:39:24;;;;;;;19.77;10.57;;;-0.50;99.90;;;;;;5046200;28;20413;-95
2022/12/12 00:41:53;;;;;;;13.30;9.27;;;-0.50;99.90;;;;;;5048393;28;20226;-94
2022/12/12 00:44:18;;;;;;;13.77;8.63;;;-0.60;99.90;;;;;;5029074;28;20176;-94
2022/12/12 00:46:44;;;;;;;21.27;10.80;;;-0.50;99.90;;;;;;5027644;28;20806;-93
2022/12/12 00:49:11;;;;;;;19.50;10.70;;;-0.40;99.90;;;;;;5027404;28;20220;-95
2022/12/12 00:51:37;;;;;;;20.70;11.10;;;-0.50;99.90;;;;;;5039538;28;20179;-94
2022/12/12 00:54:05;;;;;;;23.33;12.90;;;-0.50;99.90;;;;;;5042447;28;20417;-94
2022/12/12 00:56:34;;;;;;;18.13;10.97;;;-0.50;99.90;;;;;;5042396;28;20242;-95
2022/12/12 00:59:02;;;;;;;22.10;13.30;;;-0.50;99.90;;;;;;5045218;28;20401;-95
2022/12/12 01:01:32;;;;;;;24.03;11.80;;;-0.60;99.90;;;;;;5044444;28;20424;-95
2022/12/12 01:03:58;;;;;;;21.43;11.27;;;-0.50;99.90;;;;;;5036913;28;20406;-92
2022/12/12 01:06:23;;;;;;;18.27;9.57;;;-0.60;99.90;;;;;;5034431;28;20420;-91
2022/12/12 01:08:49;;;;;;;16.90;9.07;;;-0.60;99.90;;;;;;5034196;28;20897;-92
2022/12/12 01:11:16;;;;;;;17.87;11.13;;;-0.60;99.90;;;;;;5016882;28;20175;-92
2022/12/12 01:13:42;;;;;;;20.37;9.53;;;-0.50;99.90;;;;;;5016690;28;20193;-91
2022/12/12 01:16:09;;;;;;;23.00;12.43;;;-0.50;99.90;;;;;;5034391;28;20468;-92
2022/12/12 01:18:38;;;;;;;17.07;10.80;;;-0.60;99.90;;;;;;5034421;28;20409;-92
2022/12/12 01:21:08;;;;;;;23.87;12.40;;;-0.60;99.90;;;;;;5034363;28;20413;-93
2022/12/12 01:23:33;;;;;;;21.77;11.57;;;-0.60;99.90;;;;;;5034166;28;20452;-93
2022/12/12 01:26:01;;;;;;;18.50;9.20;;;-0.70;99.90;;;;;;5016979;28;20416;-92
2022/12/12 01:28:26;;;;;;;17.63;9.90;;;-0.70;99.90;;;;;;5016600;28;20211;-93
2022/12/12 01:30:51;;;;;;;21.00;10.57;;;-0.70;96.40;;;;;;5034042;28;20467;-92
2022/12/12 01:33:17;;;;;;;17.43;9.90;;;-0.70;99.90;;;;;;5034127;28;20631;-92
2022/12/12 01:35:42;;;;;;;15.43;8.83;;;-0.70;99.90;;;;;;5034555;28;20219;-90
2022/12/12 01:38:08;;;;;;;16.27;8.10;;;-0.70;99.90;;;;;;5031179;28;20179;-91
2022/12/12 01:40:33;;;;;;;14.73;10.00;;;-0.70;99.90;;;;;;5057392;28;20170;-93
2022/12/12 01:42:59;;;;;;;15.87;8.93;;;-0.70;99.90;;;;;;5044433;28;20171;-94
2022/12/12 01:46:01;;;;;;;19.60;9.50;;;-0.80;99.90;;;;;;5035790;28;20181;-93
2022/12/12 01:48:33;;;;;;;15.67;9.23;;;-0.80;99.90;;;;;;5020234;28;20182;-94
2022/12/12 01:51:02;;;;;;;20.60;10.27;;;-0.80;99.90;;;;;;5035680;28;20445;-94
2022/12/12 01:53:29;;;;;;;20.20;9.47;;;-0.80;99.90;;;;;;5034971;28;20416;-94
2022/12/12 01:55:56;;;;;;;21.50;11.50;;;-0.90;99.90;;;;;;5017945;28;20511;-94
2022/12/12 01:58:22;;;;;;;23.47;12.27;;;-1.00;99.90;;;;;;5035579;28;20414;-94
2022/12/12 02:00:48;;;;;;;17.57;10.13;;;-1.00;99.90;;;;;;5043991;28;20449;-94
2022/12/12 02:03:14;;;;;;;15.50;8.50;;;-1.00;99.90;;;;;;5051188;28;20409;-92
2022/12/12 02:05:49;;;;;;;16.87;9.70;;;-1.00;99.90;;;;;;5033787;28;20185;-95
2022/12/12 02:08:16;;;;;;;17.93;7.93;;;-1.10;99.90;;;;;;5043400;28;20177;-93
2022/12/12 02:10:44;;;;;;;15.90;9.60;;;-1.10;99.90;;;;;;5023488;28;20905;-94
2022/12/12 02:13:13;;;;;;;18.00;10.37;;;-1.10;99.90;;;;;;5051182;28;20406;-94
2022/12/12 02:15:55;;;;;;;20.63;11.50;;;-1.10;99.90;;;;;;5058662;28;20471;-94
2022/12/12 02:18:30;;;;;;;14.53;7.60;;;-1.20;99.90;;;;;;5043403;28;20433;-94
2022/12/12 02:21:07;;;;;;;16.20;8.10;;;-1.30;99.90;;;;;;5055414;28;20423;-93
2022/12/12 02:24:10;;;;;;;18.73;9.67;;;-1.30;99.90;;;;;;5056732;28;20479;-91
2022/12/12 02:26:56;;;;;;;13.07;7.33;;;-1.30;99.90;;;;;;5056521;28;20418;-85
2022/12/12 02:29:45;;;;;;;19.30;8.97;;;-1.40;99.90;;;;;;5060071;28;20401;-90
2022/12/12 02:32:31;;;;;;;24.83;9.83;;;-1.40;99.90;;;;;;5058036;28;20416;-88
2022/12/12 02:35:19;;;;;;;15.90;9.27;;;-1.40;99.90;;;;;;5058410;28;20412;-88
2022/12/12 02:38:14;;;;;;;18.80;9.60;;;-1.30;99.90;;;;;;5039737;28;20425;-86
2022/12/12 02:41:39;;;;;;;19.10;10.23;;;-1.40;99.90;;;;;;5039616;28;20411;-91
2022/12/12 02:44:28;;;;;;;14.73;9.40;;;-1.50;99.90;;;;;;5028140;28;20425;-92
2022/12/12 02:47:18;;;;;;;16.83;8.40;;;-1.50;99.90;;;;;;5046058;28;20400;-93
2022/12/12 02:49:54;;;;;;;15.57;7.17;;;-1.60;99.90;;;;;;5024951;28;20563;-94
2022/12/12 02:52:20;;;;;;;16.10;9.40;;;-1.60;99.90;;;;;;5039330;28;20404;-93
2022/12/12 02:54:47;;;;;;;15.60;7.90;;;-1.70;99.90;;;;;;5037344;28;20413;-91
2022/12/12 02:57:16;;;;;;;11.90;9.80;;;-1.80;99.90;;;;;;5037305;28;20549;-94
2022/12/12 02:59:47;;;;;;;16.40;9.10;;;-1.80;99.90;;;;;;5019738;28;20420;-91
2022/12/12 03:02:31;;;;;;;16.60;8.47;;;-1.80;99.90;;;;;;5019733;28;20463;-92
2022/12/12 03:08:44;;;;;;;17.53;8.67;;;-1.90;99.90;;;;;;5038373;28;20400;-92
2022/12/12 03:11:13;;;;;;;15.17;10.43;;;-2.00;99.90;;;;;;4940538;29;20424;-92
2022/12/12 03:14:00;;;;;;;20.30;10.10;;;-1.90;99.90;;;;;;4942241;29;20421;-93
2022/12/12 03:16:38;;;;;;;21.17;12.07;;;-2.00;99.90;;;;;;4993207;28;20842;-92
2022/12/12 03:19:14;;;;;;;15.93;9.97;;;-2.00;99.90;;;;;;5019229;28;20783;-90
2022/12/12 03:21:50;;;;;;;16.60;10.30;;;-2.10;99.90;;;;;;5019277;28;21033;-94
2022/12/12 03:24:25;;;;;;;22.77;9.70;;;-2.20;99.90;;;;;;5037577;28;20452;-92
2022/12/12 03:27:22;;;;;;;21.10;9.30;;;-2.30;99.90;;;;;;5056403;28;20472;-88
2022/12/12 03:29:57;;;;;;;23.13;9.27;;;-2.30;99.90;;;;;;5059186;28;20433;-89
2022/12/12 03:32:28;;;;;;;16.73;8.10;;;-2.30;99.90;;;;;;5059108;28;20448;-85
2022/12/12 03:35:21;;;;;;;19.97;9.13;;;-2.30;99.90;;;;;;5026202;28;20440;-91
2022/12/12 03:37:50;;;;;;;16.30;8.90;;;-2.30;99.90;;;;;;4998599;28;20783;-93
2022/12/12 03:40:40;;;;;;;14.63;9.77;;;-2.30;99.90;;;;;;5036034;28;20446;-91
2022/12/12 03:43:10;;;;;;;14.00;7.63;;;-2.40;99.90;;;;;;5036201;28;20420;-88
2022/12/12 03:45:46;;;;;;;19.30;9.90;;;-2.40;99.90;;;;;;5018609;28;20427;-89
2022/12/12 03:48:29;;;;;;;21.73;9.50;;;-2.40;99.90;;;;;;5035817;28;20502;-91
2022/12/12 03:51:02;;;;;;;15.10;11.73;;;-2.40;99.90;;;;;;5018394;28;20427;-90
2022/12/12 03:53:42;;;;;;;16.47;9.93;;;-2.50;99.90;;;;;;5013547;28;20410;-89
2022/12/12 03:56:24;;;;;;;23.97;11.60;;;-2.50;99.90;;;;;;5017870;28;20483;-91
2022/12/12 03:58:56;;;;;;;19.53;11.10;;;-2.60;99.90;;;;;;5018170;28;20508;-91
2022/12/12 04:01:27;;;;;;;16.77;9.13;;;-2.60;99.90;;;;;;5035775;28;20491;-92
2022/12/12 04:04:11;;;;;;;24.83;10.80;;;-2.70;99.90;;;;;;5018074;28;20511;-91
2022/12/12 04:06:51;;;;;;;17.10;9.60;;;-2.60;99.90;;;;;;5017129;28;20423;-91
2022/12/12 04:15:23;;;;;;;18.20;10.10;;;-2.60;99.90;;;;;;5035527;28;20442;-91
2022/12/12 04:18:23;;;;;;;18.80;9.97;;;-2.60;99.90;;;;;;5035556;28;20443;-92
2022/12/12 04:24:14;;;;;;;13.00;9.33;;;-2.80;99.90;;;;;;5035029;28;20420;-93
2022/12/12 04:26:48;;;;;;;18.77;11.40;;;-2.90;99.90;;;;;;5036092;28;20411;-94
2022/12/12 04:29:47;;;;;;;17.67;10.23;;;-2.90;99.90;;;;;;5017662;28;20509;-93
2022/12/12 04:32:31;;;;;;;17.83;10.53;;;-2.90;99.90;;;;;;5035264;28;20421;-95
2022/12/12 04:35:20;;;;;;;22.43;10.97;;;-2.90;99.90;;;;;;5035080;28;20795;-94
2022/12/12 04:37:50;;;;;;;14.47;10.33;;;-2.90;99.90;;;;;;5017205;28;20451;-91
2022/12/12 04:40:29;;;;;;;21.03;10.13;;;-2.90;99.90;;;;;;5017492;28;20977;-92
2022/12/12 04:43:11;;;;;;;21.03;10.83;;;-2.90;99.90;;;;;;5017426;28;20424;-92
2022/12/12 04:45:53;;;;;;;17.53;10.10;;;-2.90;99.90;;;;;;5034911;28;20444;-91
2022/12/12 04:48:26;;;;;;;14.53;10.27;;;-2.90;99.90;;;;;;5017207;28;20412;-92
2022/12/12 04:50:52;;;;;;;24.37;12.87;;;-3.00;99.90;;;;;;5017457;28;20456;-92
2022/12/12 04:53:24;;;;;;;19.87;11.63;;;-3.00;99.90;;;;;;5034423;28;20423;-92
2022/12/12 04:55:54;;;;;;;19.80;9.67;;;-3.00;99.90;;;;;;5017005;28;20809;-93
2022/12/12 04:58:20;;;;;;;18.27;9.40;;;-3.00;99.90;;;;;;5034809;28;21012;-93
2022/12/12 05:01:12;;;;;;;18.37;8.90;;;-3.00;99.90;;;;;;5017195;28;20445;-93
2022/12/12 05:03:47;;;;;;;21.33;12.00;;;-3.10;99.90;;;;;;5034530;28;20432;-93
2022/12/12 05:06:18;;;;;;;26.67;11.13;;;-3.20;99.90;;;;;;5025248;28;20416;-94
2022/12/12 05:08:50;;;;;;;19.77;10.37;;;-3.10;99.90;;;;;;5046710;28;20417;-93
2022/12/12 05:11:20;;;;;;;16.87;10.73;;;-3.10;99.90;;;;;;5048254;28;20411;-92
2022/12/12 05:13:47;;;;;;;18.93;9.50;;;-3.10;99.90;;;;;;5030101;28;20424;-95
2022/12/12 05:16:26;;;;;;;21.00;12.33;;;-3.20;99.90;;;;;;5028269;28;20487;-96
2022/12/12 05:18:52;;;;;;;16.83;11.03;;;-3.20;99.90;;;;;;5046510;28;20442;-94
2022/12/12 05:21:17;;;;;;;20.60;9.67;;;-3.40;99.90;;;;;;5046382;28;20428;-95
2022/12/12 05:23:43;;;;;;;24.23;13.77;;;-3.40;99.90;;;;;;5046008;28;20184;-94
2022/12/12 05:26:20;;;;;;;16.40;8.93;;;-3.40;99.90;;;;;;5029049;28;20176;-93
2022/12/12 05:28:49;;;;;;;18.93;10.53;;;-3.40;99.90;;;;;;5047026;28;20424;-94
2022/12/12 05:31:14;;;;;;;18.73;9.20;;;-3.50;99.90;;;;;;5045827;28;20473;-95
2022/12/12 05:33:40;;;;;;;17.27;9.73;;;-3.50;99.90;;;;;;5045847;28;20433;-95
2022/12/12 05:36:05;;;;;;;21.57;11.63;;;-3.40;99.90;;;;;;5051041;28;20199;-84
2022/12/12 05:38:32;;;;;;;22.13;11.93;;;-3.50;99.90;;;;;;5033311;28;20207;-94
2022/12/12 05:40:58;;;;;;;17.77;9.37;;;-3.60;99.90;;;;;;5048110;28;20431;-94
2022/12/12 05:43:23;;;;;;;24.40;10.73;;;-3.50;99.90;;;;;;5045345;28;20432;-95
2022/12/12 05:45:49;;;;;;;18.83;9.50;;;-3.50;99.90;;;;;;5045460;28;20162;-94
2022/12/12 05:48:14;;;;;;;21.53;11.50;;;-3.50;99.90;;;;;;5044165;28;20175;-95
2022/12/12 05:50:40;;;;;;;20.73;11.60;;;-3.60;99.90;;;;;;5039220;28;20272;-94
2022/12/12 05:53:05;;;;;;;24.70;13.40;;;-3.60;99.90;;;;;;5021284;28;20184;-94
2022/12/12 05:55:31;;;;;;;14.70;10.83;;;-3.60;99.90;;;;;;5039077;28;20275;-95
2022/12/12 05:57:56;;;;;;;17.73;9.33;;;-3.60;99.90;;;;;;5039461;28;20201;-94
2022/12/12 06:00:22;;;;;;;19.70;10.67;;;-3.60;99.90;;;;;;5041629;28;20586;-92
2022/12/12 06:02:48;;;;;;;13.83;10.13;;;-3.70;99.90;;;;;;5038980;28;20255;-94
2022/12/12 06:05:16;;;;;;;18.60;10.90;;;-3.60;99.90;;;;;;5039380;28;20601;-89
2022/12/12 06:07:42;;;;;;;17.93;9.60;;;-3.70;99.90;;;;;;5039038;28;20499;-93
2022/12/12 06:10:08;;;;;;;17.33;11.10;;;-3.70;99.90;;;;;;5021273;28;20482;-95
2022/12/12 06:12:33;;;;;;;13.37;9.27;;;-3.70;99.90;;;;;;5038992;28;20170;-94
2022/12/12 06:14:59;;;;;;;20.33;12.40;;;-3.80;99.90;;;;;;5021692;28;20245;-94
2022/12/12 06:17:24;;;;;;;19.07;11.70;;;-3.80;99.90;;;;;;5039124;28;20210;-93
2022/12/12 06:19:51;;;;;;;16.50;10.03;;;-3.90;99.90;;;;;;5038858;28;20173;-93
2022/12/12 06:22:23;;;;;;;17.13;10.57;;;-3.90;99.90;;;;;;5019946;28;20193;-94
2022/12/12 06:24:48;;;;;;;21.00;12.07;;;-4.00;99.90;;;;;;5019937;28;20474;-93
2022/12/12 06:27:14;;;;;;;15.20;9.33;;;-3.90;99.90;;;;;;5020718;28;20901;-94
2022/12/12 06:29:39;;;;;;;20.43;10.90;;;-3.90;99.90;;;;;;5037442;28;20185;-88
2022/12/12 06:32:05;;;;;;;19.57;10.70;;;-4.00;99.90;;;;;;5020732;28;20201;-93
2022/12/12 06:34:31;;;;;;;18.20;9.73;;;-4.10;99.90;;;;;;5020345;28;20701;-94
2022/12/12 06:37:00;;;;;;;21.67;10.30;;;;;;;;;;5037432;28;20214;-93
2022/12/12 06:39:26;;;;;;;13.40;8.37;;;;;;;;;;5037750;28;20416;-93
2022/12/12 06:41:51;;;;;;;15.50;10.43;;;-4.30;99.90;;;;;;5019937;28;20415;-94
2022/12/12 06:44:17;;;;;;;23.70;10.67;;;-4.30;99.90;;;;;;5037621;28;20447;-93
2022/12/12 06:46:42;;;;;;;15.80;9.60;;;-4.50;99.90;;;;;;5036856;28;20162;-94
2022/12/12 06:49:14;;;;;;;15.40;8.90;;;-4.50;99.90;;;;;;5037546;28;20178;-93
2022/12/12 06:51:43;;;;;;;18.17;9.60;;;-4.50;99.90;;;;;;5019405;28;20632;-94
2022/12/12 06:57:13;;;;;;;11.30;7.03;;;-4.40;99.90;;;;;;5035976;28;20487;-91
2022/12/12 06:59:38;;;;;;;20.97;12.03;;;-4.30;99.90;;;;;;5036975;28;20510;-92
2022/12/12 07:02:05;;;;;;;20.13;10.70;;;-4.30;99.90;;;;;;5019903;28;20232;-92
2022/12/12 07:04:34;;;;;;;20.03;10.83;;;-4.30;99.90;;;;;;5019520;28;20270;-92
2022/12/12 07:06:59;;;;;;;12.20;7.57;;;-4.10;99.90;;;;;;5037353;28;20491;-92
2022/12/12 07:09:25;;;;;;;19.70;9.17;;;-4.00;99.90;;;;;;5021828;28;20433;-85
2022/12/12 07:11:50;;;;;;;15.00;10.10;;;-3.80;99.90;;;;;;5060062;28;20180;-90
2022/12/12 07:14:16;;;;;;;24.17;11.23;;;-3.70;99.90;;;;;;5038409;28;20188;-88
2022/12/12 07:16:41;;;;;;;18.87;9.73;;;-3.50;99.90;;;;;;5037618;28;20221;-86
2022/12/12 07:19:08;;;;;;;19.30;12.13;;;-3.40;99.90;;;;;;5055098;28;20555;-85
2022/12/12 07:21:33;;;;;;;17.37;9.97;;;-3.40;99.90;;;;;;5054585;28;20181;-86
2022/12/12 07:23:59;;;;;;;18.50;12.00;;;-3.40;99.90;;;;;;5037219;28;20465;-86
2022/12/12 07:26:25;;;;;;;16.40;10.43;;;-3.50;99.90;;;;;;5055271;28;20222;-86
2022/12/12 07:28:50;;;;;;;21.83;11.47;;;-3.50;99.90;;;;;;5037309;28;20783;-87
2022/12/12 07:31:19;;;;;;;21.47;11.47;;;-3.50;99.90;;;;;;5055126;28;20732;-86
2022/12/12 07:33:45;;;;;;;30.30;16.10;;;-3.40;99.90;;;;;;5055958;28;20169;-85
2022/12/12 07:36:13;;;;;;;18.87;10.73;;;-3.40;99.90;;;;;;5054351;28;20493;-87
2022/12/12 07:38:39;;;;;;;18.17;10.40;;;-3.30;99.90;;;;;;5054811;28;20469;-86
2022/12/12 07:41:06;;;;;;;17.47;11.77;;;-3.20;99.90;;;;;;5054969;28;20828;-86
2022/12/12 07:43:36;;;;;;;24.07;13.07;;;-3.10;99.90;;;;;;5054930;28;20164;-86
2022/12/12 07:46:06;;;;;;;17.13;10.43;;;-3.10;99.90;;;;;;5056548;28;20419;-86
2022/12/12 07:48:32;;;;;;;22.20;11.80;;;-3.10;99.90;;;;;;5040202;28;20835;-85
2022/12/12 07:50:59;;;;;;;26.50;13.43;;;-3.00;99.90;;;;;;5061788;28;20474;-88
2022/12/12 07:53:26;;;;;;;21.13;10.93;;;-2.90;99.90;;;;;;5058918;28;20654;-88
2022/12/12 07:55:51;;;;;;;23.37;12.20;;;-2.90;99.90;;;;;;5039880;28;20489;-88
2022/12/12 07:58:17;;;;;;;23.10;17.27;;;-2.90;99.90;;;;;;5057086;28;20423;-86
2022/12/12 08:00:43;;;;;;;22.73;13.90;;;-2.80;99.90;;;;;;5039266;28;20679;-88
2022/12/12 08:03:08;;;;;;;22.23;11.47;;;-2.80;99.90;;;;;;5037075;28;20656;-87
2022/12/12 08:05:34;;;;;;;17.67;11.87;;;-2.80;99.90;;;;;;5037833;28;20458;-86
2022/12/12 08:07:59;;;;;;;18.17;14.23;;;-2.70;99.90;;;;;;5054008;28;20230;-87
2022/12/12 08:10:25;;;;;;;29.23;14.27;;;-2.60;99.90;;;;;;5054561;28;20184;-86
2022/12/12 08:12:50;;;;;;;20.17;11.60;;;-2.50;99.90;;;;;;5054479;28;20534;-87
2022/12/12 08:15:17;;;;;;;23.53;15.87;;;-2.60;99.90;;;;;;5054310;28;20564;-87
2022/12/12 08:17:43;;;;;;;25.47;12.97;;;-2.50;99.90;;;;;;5036618;28;20241;-89
2022/12/12 08:20:09;;;;;;;27.03;12.40;;;-2.50;99.90;;;;;;5054895;28;20410;-88
2022/12/12 08:22:35;;;;;;;20.33;13.27;;;-2.50;99.90;;;;;;5036483;28;20958;-89
2022/12/12 08:25:03;;;;;;;25.80;15.60;;;-2.60;99.90;;;;;;5054147;28;20412;-87
2022/12/12 08:27:33;;;;;;;19.50;13.60;;;-2.60;99.90;;;;;;5054006;28;20180;-87
2022/12/12 08:29:58;;;;;;;22.70;12.10;;;-2.70;99.90;;;;;;5053707;28;20411;-87
2022/12/12 08:32:27;;;;;;;16.97;12.90;;;-2.60;99.90;;;;;;5053613;28;20742;-86
2022/12/12 08:34:57;;;;;;;22.77;13.60;;;-2.60;99.90;;;;;;5036124;28;20187;-88
2022/12/12 08:37:23;;;;;;;21.57;12.60;;;-2.60;99.90;;;;;;5035949;28;20489;-87
2022/12/12 08:39:51;;;;;;;27.13;13.00;;;-2.60;99.90;;;;;;5054151;28;20409;-86
2022/12/12 08:42:20;;;;;;;19.13;11.27;;;-2.40;99.90;;;;;;5036158;28;20415;-86
2022/12/12 08:44:49;;;;;;;23.50;13.47;;;-2.40;99.90;;;;;;5036080;28;20424;-88
2022/12/12 08:47:15;;;;;;;24.93;12.03;;;-2.50;99.90;;;;;;5036343;28;20416;-88
2022/12/12 08:49:41;;;;;;;22.80;12.87;;;-2.50;99.90;;;;;;5036336;28;20422;-88
2022/12/12 08:52:08;;;;;;;20.80;11.10;;;-2.40;99.90;;;;;;5053475;28;20404;-88
2022/12/12 08:54:36;;;;;;;24.43;13.70;;;-2.30;99.90;;;;;;5036285;28;20174;-88
2022/12/12 08:57:02;;;;;;;28.13;13.70;;;-2.30;99.90;;;;;;5035747;28;20472;-88
2022/12/12 08:59:27;;;;;;;24.70;11.80;;;-2.20;99.90;;;;;;5054224;28;20417;-88
2022/12/12 09:01:53;;;;;;;23.97;14.13;;;-2.10;99.90;;;;;;5053828;28;20420;-87
2022/12/12 09:04:18;;;;;;;25.43;14.40;;;-2.10;99.90;;;;;;5035890;28;20181;-88
2022/12/12 09:06:44;;;;;;;19.03;14.87;;;-2.10;99.90;;;;;;5037447;28;20173;-87
2022/12/12 09:09:10;;;;;;;22.70;13.30;;;-2.10;99.90;;;;;;5039933;28;20165;-85
2022/12/12 09:11:38;;;;;;;23.37;14.10;;;-2.00;99.90;;;;;;5036493;28;20938;-85
2022/12/12 09:14:04;;;;;;;28.33;14.50;;;-1.90;99.90;;;;;;5056338;28;20529;-84
2022/12/12 09:16:29;;;;;;;31.07;15.47;;;-1.80;99.90;;;;;;5057686;28;20551;-87
2022/12/12 09:18:55;;;;;;;24.70;14.10;;;-1.80;99.90;;;;;;5055425;28;20226;-87
2022/12/12 09:21:21;;;;;;;26.33;14.67;;;-1.70;99.90;;;;;;5055236;28;20173;-84
2022/12/12 09:23:48;;;;;;;27.30;15.10;;;-1.70;99.90;;;;;;5055572;28;20435;-85
2022/12/12 09:26:13;;;;;;;24.83;14.77;;;-1.70;99.90;;;;;;5053109;28;20578;-84
2022/12/12 09:28:39;;;;;;;26.00;15.07;;;-1.60;99.90;;;;;;5035574;28;20474;-86
2022/12/12 09:31:09;;;;;;;22.13;12.97;;;-1.50;99.90;;;;;;5053468;28;20342;-88
2022/12/12 09:33:35;;;;;;;31.80;17.17;;;-1.40;99.90;;;;;;5035401;28;20563;-87
2022/12/12 09:36:03;;;;;;;29.93;15.03;;;-1.40;99.90;;;;;;5052764;28;20599;-85
2022/12/12 09:38:32;;;;;;;28.57;14.47;;;-1.40;99.90;;;;;;5053120;28;20444;-85
2022/12/12 09:41:02;;;;;;;27.43;13.57;;;-1.30;99.90;;;;;;5035247;28;20779;-84
2022/12/12 09:43:32;;;;;;;30.27;17.23;;;-1.30;99.90;;;;;;5035342;28;20481;-84
2022/12/12 09:45:59;;;;;;;25.23;14.70;;;-1.30;99.90;;;;;;5035080;28;20412;-87
2022/12/12 09:48:39;;;;;;;25.63;13.50;;;-1.20;99.90;;;;;;5052924;28;20499;-86
2022/12/12 09:51:05;;;;;;;21.73;15.43;;;-1.10;99.90;;;;;;5052564;28;20405;-84
2022/12/12 09:53:31;;;;;;;25.03;14.97;;;-1.10;99.90;;;;;;5052888;28;20404;-87
2022/12/12 09:56:05;;;;;;;26.50;15.43;;;-1.10;99.90;;;;;;5052726;28;20201;-87
2022/12/12 09:58:57;;;;;;;36.87;17.13;;;-1.10;99.90;;;;;;5052843;28;20182;-87
2022/12/12 10:01:51;;;;;;;31.83;15.30;;;-1.00;99.90;;;;;;5030006;28;20511;-88
2022/12/12 10:04:44;;;;;;;28.40;12.67;;;-0.90;99.90;;;;;;5034931;28;20780;-88
2022/12/12 10:07:36;;;;;;;26.03;12.77;;;-0.80;99.90;;;;;;5052309;28;20442;-83
2022/12/12 10:10:11;;;;;;;25.70;13.63;;;-0.80;99.90;;;;;;5052701;28;20948;-88
2022/12/12 10:12:37;;;;;;;22.83;12.47;;;-0.80;99.90;;;;;;5052650;28;20414;-85
2022/12/12 10:15:28;;;;;;;18.80;11.77;;;-0.80;99.90;;;;;;5052436;28;20611;-87
2022/12/12 10:17:56;;;;;;;23.77;14.57;;;-0.70;99.90;;;;;;5034625;28;20458;-86
2022/12/12 10:20:31;;;;;;;20.43;12.90;;;-0.70;99.90;;;;;;5052199;28;20407;-84
2022/12/12 10:23:09;;;;;;;22.90;13.70;;;;;;;;;;5055621;28;20422;-85
2022/12/12 10:25:55;;;;;;;23.33;14.30;;;;;;;;;;5056289;28;20440;-86
2022/12/12 10:28:23;;;;;;;27.53;13.37;;;;;;;;;;5057219;28;20414;-86
2022/12/12 10:30:58;;;;;;;20.60;11.83;;;;;;;;;;5038009;28;20530;-83
2022/12/12 10:33:33;;;;;;;26.97;12.93;;;;;;;;;;5034558;28;20412;-86
2022/12/12 10:36:18;;;;;;;25.40;12.47;;;;;;;;;;5018857;28;20808;-87
2022/12/12 10:38:52;;;;;;;26.10;16.67;;;;;;;;;;5044419;28;20413;-86
2022/12/12 10:41:37;;;;;;;22.50;11.70;;;;;;;;;;5026034;28;20443;-87
2022/12/12 10:44:11;;;;;;;28.03;14.10;;;;;;;;;;5035966;28;20425;-89
2022/12/12 10:46:47;;;;;;;22.60;11.77;;;;;;;;;;5018579;28;20497;-88
2022/12/12 10:49:14;;;;;;;20.67;12.67;;;;;;;;;;5036083;28;20440;-86
2022/12/12 10:51:43;;;;;;;19.00;12.50;;;;;;;;;;5035216;28;20499;-87
2022/12/12 10:54:20;;;;;;;19.87;10.80;;;;;;;;;;5036260;28;20496;-86
2022/12/12 10:57:05;;;;;;;17.93;10.30;;;;;;;;;;5034605;28;20828;-89
2022/12/12 10:59:31;;;;;;;19.23;11.20;;;;;;;;;;5016914;28;20513;-89
2022/12/12 11:01:58;;;;;;;18.70;10.67;;;;;;;;;;5017180;28;20425;-90
2022/12/12 11:04:24;;;;;;;17.03;10.00;;;;;;;;;;5017035;28;20432;-88
2022/12/12 11:06:51;;;;;;;24.33;10.50;;;;;;;;;;5017136;28;20944;-83
2022/12/12 11:09:19;;;;;;;18.13;10.00;;;;;;;;;;5017754;28;20819;-89
2022/12/12 11:11:56;;;;;;;14.80;10.10;;;;;;;;;;5035265;28;20454;-86
2022/12/12 11:14:27;;;;;;;17.43;12.00;;;;;;;;;;5035323;28;20389;-88
2022/12/12 11:16:53;;;;;;;16.80;10.83;;;;;;;;;;5034457;28;20470;-86
2022/12/12 11:19:19;;;;;;;15.43;9.90;;;;;;;;;;5034395;28;20403;-86
2022/12/12 11:21:45;;;;;;;21.20;13.13;;;;;;;;;;5016309;28;20419;-86
2022/12/12 11:24:13;;;;;;;21.20;10.40;;;;;;;;;;5034223;28;20818;-85
2022/12/12 11:26:41;;;;;;;23.20;12.50;;;;;;;;;;5017155;28;20419;-87
2022/12/12 11:29:14;;;;;;;20.33;11.77;;;;;;;;;;5017548;28;20517;-84
2022/12/12 11:31:43;;;;;;;20.07;12.10;;;;;;;;;;5015719;28;20463;-86
2022/12/12 11:34:13;;;;;;;26.70;12.97;;;;;;;;;;5016493;28;20421;-84
2022/12/12 11:36:41;;;;;;;21.17;11.83;;;;;;;;;;5033844;28;20479;-84
2022/12/12 11:39:24;;;;;;;24.73;12.20;;;;;;;;;;5033920;28;20426;-85
2022/12/12 11:42:01;;;;;;;24.30;13.27;;;;;;;;;;5016251;28;20419;-86
2022/12/12 11:44:31;;;;;;;17.17;11.87;;;;;;;;;;5016209;28;20447;-83
2022/12/12 11:47:14;;;;;;;20.40;11.10;;;;;;;;;;5033791;28;20421;-86
2022/12/12 11:49:45;;;;;;;23.87;12.93;;;;;;;;;;5016016;28;20479;-84
2022/12/12 11:52:22;;;;;;;20.83;12.13;;;;;;;;;;5015877;28;20419;-84
2022/12/12 11:54:48;;;;;;;22.10;11.90;;;;;;;;;;5015329;28;20502;-85
2022/12/12 11:57:18;;;;;;;20.00;12.27;;;;;;;;;;5033241;28;20965;-86
2022/12/12 12:00:02;;;;;;;22.00;12.63;;;;;;;;;;5033474;28;20446;-85
2022/12/12 12:02:40;;;;;;;24.13;13.00;;;;;;;;;;5015643;28;20442;-83
2022/12/12 12:05:21;;;;;;;19.23;12.43;;;;;;;;;;5032939;28;20410;-85
2022/12/12 12:07:53;;;;;;;20.53;12.63;;;;;;;;;;5032683;28;20417;-89
2022/12/12 12:10:28;;;;;;;20.40;13.13;;;;;;;;;;5036857;28;20447;-89
2022/12/12 12:13:15;;;;;;;18.47;12.03;;;;;;;;;;5021160;28;20431;-86
2022/12/12 12:15:55;;;;;;;21.80;13.13;;;;;;;;;;5015371;28;20456;-87
2022/12/12 12:18:41;;;;;;;20.70;12.70;;;;;;;;;;5033047;28;20905;-88
2022/12/12 12:21:26;;;;;;;22.43;12.87;;;;;;;;;;5032585;28;20416;-87
2022/12/12 12:24:11;;;;;;;21.80;13.20;;;;;;;;;;5032850;28;20404;-85
2022/12/12 12:26:37;;;;;;;19.93;11.50;;;;;;;;;;5032878;28;20448;-85
2022/12/12 12:29:09;;;;;;;19.93;11.30;;;;;;;;;;5014962;28;20424;-83
2022/12/12 12:31:39;;;;;;;20.23;12.30;;;;;;;;;;5032776;28;20306;-85
2022/12/12 12:34:20;;;;;;;18.50;11.40;;;;;;;;;;5015229;28;20486;-87
2022/12/12 12:37:01;;;;;;;19.13;13.07;;;;;;;;;;4995727;28;20498;-89
2022/12/12 12:39:36;;;;;;;19.83;12.30;;;;;;;;;;4995820;28;20782;-85
2022/12/12 12:42:03;;;;;;;21.37;14.50;;;;;;;;;;5013695;28;21009;-87
2022/12/12 12:44:55;;;;;;;22.83;13.60;;;;;;;;;;4995025;28;20419;-84
2022/12/12 12:47:29;;;;;;;23.17;13.70;;;;;;;;;;5008618;28;20476;-86
2022/12/12 12:50:01;;;;;;;20.20;11.93;;;;;;;;;;5012990;28;20410;-86
2022/12/12 12:52:42;;;;;;;26.67;13.13;;;;;;;;;;4995520;28;20429;-85
2022/12/12 12:55:14;;;;;;;22.60;13.23;;;;;;;;;;4995720;28;20500;-85
2022/12/12 12:57:42;;;;;;;19.67;12.80;;;;;;;;;;5012909;28;20943;-85
2022/12/12 13:00:19;;;;;;;23.40;12.60;;;;;;;;;;5013153;28;20408;-84
2022/12/12 13:02:59;;;;;;;26.63;13.93;;;;;;;;;;4995498;28;20414;-85
2022/12/12 13:05:44;;;;;;;24.63;13.63;;;;;;;;;;4995234;28;20423;-84
2022/12/12 13:08:22;;;;;;;24.37;12.20;;;;;;;;;;5013100;28;20416;-85
2022/12/12 13:10:53;;;;;;;23.50;13.03;;;;;;;;;;4995566;28;20491;-84
2022/12/12 13:13:30;;;;;;;25.33;13.87;;;;;;;;;;5013597;28;20440;-84
2022/12/12 13:15:59;;;;;;;26.20;13.70;;;;;;;;;;5013338;28;20476;-86
2022/12/12 13:18:25;;;;;;;16.77;11.47;;;;;;;;;;5013203;28;20416;-85
2022/12/12 13:20:55;;;;;;;24.50;12.27;;;;;;;;;;5012883;28;20449;-85
2022/12/12 13:23:39;;;;;;;23.97;13.97;;;;;;;;;;5020776;28;20409;-83
2022/12/12 13:26:22;;;;;;;20.53;12.10;;;;;;;;;;5008308;28;20424;-84
2022/12/12 13:28:51;;;;;;;19.87;12.70;;;;;;;;;;5020379;28;20492;-78
2022/12/12 13:31:27;;;;;;;21.00;12.83;;;;;;;;;;5026365;28;20456;-80